LIPC

Cervia Air Force Base Airport

Cervia, Italy
TAF LIPC 261100Z 2612/2621 09010KT CAVOK
Issued Valid From Valid To
Apr-26 @ 11:00 UTC
(2 hours ago)
Apr-26 @ 12:00 UTC
(an hour ago)
Apr-26 @ 21:00 UTC
(in 8 hours)
Apr-26 @ 12:00 to Apr-26 @ 21:00
TAF LIPC 261100Z 2612/2621 09010KT CAVOK
Wind Visibility Clouds Conditions
90° at 10 knots 10,000+ meters
  • No significant clouds
TAF LIPC 261100Z 2612/2621 09010KT CAVOK
Issued Apr-26 @ 11:00 UTC
(2 hours ago)
Valid From Apr-26 @ 12:00 UTC
(an hour ago)
Valid To Apr-26 @ 21:00 UTC
(in 8 hours)
Apr-26 @ 12:00 - Apr-26 @ 21:00
Wind Visibility
90° at 10 knots 10,000+ meters
Clouds
  • No significant clouds
Conditions